Terminal Aerodrome Forecast
Issued by NWS Jackson, MS

Home | Current Version | Previous Version | Text Only | Print | Product List | Glossary On
Versions: 1 2 3 4 5 6 7 8 9 10 11 12
422
FTUS44 KJAN 222344
TAFGWO
TAF
KGWO 222344Z 2300/2324 21004KT P6SM FEW050
     FM231300 01005KT P6SM SCT015 BKN050
     FM231700 02008KT P6SM VCTS BKN050CB=

USA.gov is the U.S. government's official web portal to all federal, state and local government web resources and services.